createdAt,value
2022-07-29T00:07:29.862Z,20
2022-07-29T00:36:53.225Z,21
2022-07-29T01:06:20.372Z,22
2022-07-29T01:35:32.400Z,21
2022-07-29T02:04:55.169Z,23
2022-07-29T02:34:16.758Z,24
2022-07-29T03:03:13.693Z,22
2022-07-29T03:32:35.327Z,26
2022-07-29T04:01:56.607Z,26
2022-07-29T04:31:20.213Z,26
2022-07-29T05:00:10.907Z,28
2022-07-29T05:29:43.523Z,28
2022-07-29T05:58:23.563Z,26
2022-07-29T06:27:53.678Z,26
2022-07-29T06:57:25.396Z,27
2022-07-29T07:27:00.025Z,26
2022-07-29T07:56:21.524Z,23
2022-07-29T08:25:35.749Z,15
2022-07-29T08:54:30.282Z,21
2022-07-29T09:23:56.750Z,20
2022-07-29T09:53:19.000Z,14
2022-07-29T10:22:53.277Z,14
2022-07-29T10:51:47.805Z,14
2022-07-29T11:21:11.035Z,20
2022-07-29T11:50:41.156Z,14
2022-07-29T12:19:35.630Z,12
2022-07-29T12:48:55.885Z,14
2022-07-29T13:18:17.694Z,13
2022-07-29T13:47:03.780Z,12
2022-07-29T14:16:27.340Z,11
2022-07-29T14:45:45.204Z,9
2022-07-29T15:14:51.667Z,7
2022-07-29T15:44:19.097Z,12
2022-07-29T16:13:19.381Z,10
2022-07-29T16:42:45.281Z,9
2022-07-29T17:11:52.223Z,9
2022-07-29T17:40:16.487Z,12
2022-07-29T18:09:33.883Z,7
2022-07-29T18:38:46.120Z,9
2022-07-29T19:08:06.813Z,8
2022-07-29T19:37:27.830Z,12
2022-07-29T20:06:48.303Z,10
2022-07-29T20:36:12.690Z,9
2022-07-29T21:05:32.101Z,10
2022-07-29T21:34:59.678Z,9
2022-07-29T22:04:29.894Z,8
2022-07-29T22:33:49.496Z,9
2022-07-29T23:03:16.414Z,12
2022-07-29T23:32:37.675Z,10
